createdAt,value
2022-10-07T00:00:04.757Z,101561.44
2022-10-07T00:03:06.561Z,101552.59
2022-10-07T00:06:13.415Z,101543.84
2022-10-07T00:09:15.285Z,101553.56
2022-10-07T00:12:16.924Z,101553.56
2022-10-07T00:15:19.652Z,101553.34
2022-10-07T00:18:21.290Z,101555.41
2022-10-07T00:21:25.815Z,101541.75
2022-10-07T00:24:27.466Z,101539.88
2022-10-07T00:27:29.133Z,101542.16
2022-10-07T00:30:30.899Z,101548.69
2022-10-07T00:33:34.795Z,101533.72
2022-10-07T00:36:38.855Z,101531.06
2022-10-07T00:39:40.455Z,101527.72
2022-10-07T00:42:42.786Z,101519.69
2022-10-07T00:45:44.543Z,101526.41
2022-10-07T00:48:46.806Z,101519.31
2022-10-07T00:51:51.922Z,101516.50
2022-10-07T00:54:55.762Z,101513.44
2022-10-07T00:58:03.004Z,101508.97
2022-10-07T01:01:05.198Z,101500.22
2022-10-07T01:04:07.121Z,101501.91
2022-10-07T01:07:59.408Z,101501.91
2022-10-07T01:11:16.456Z,101506.78
2022-10-07T01:14:29.528Z,101501.72
2022-10-07T01:17:38.839Z,101496.13
2022-10-07T01:20:46.836Z,101499.84
2022-10-07T01:24:02.814Z,101490.66
2022-10-07T01:27:09.917Z,101485.63
2022-10-07T01:30:12.591Z,101487.28
2022-10-07T01:33:19.145Z,101481.69
2022-10-07T01:36:24.969Z,101472.88
2022-10-07T01:39:31.770Z,101470.06
2022-10-07T01:42:35.177Z,101469.53
2022-10-07T01:45:40.587Z,101475.50
2022-10-07T01:48:42.387Z,101471.22
2022-10-07T01:51:44.687Z,101469.72
2022-10-07T01:55:23.746Z,101465.81
2022-10-07T01:58:35.987Z,101452.91
2022-10-07T02:01:43.753Z,101455.72
2022-10-07T02:04:57.001Z,101465.25
2022-10-07T02:08:15.224Z,101457.41
2022-10-07T02:11:21.829Z,101450.47
2022-10-07T02:14:38.306Z,101459.59
2022-10-07T02:17:46.361Z,101448.78
2022-10-07T02:20:51.947Z,101445.44
2022-10-07T02:23:58.148Z,101441.31
2022-10-07T02:27:06.024Z,101446.53
2022-10-07T02:30:12.284Z,101444.06
2022-10-07T02:33:14.585Z,101433.97
2022-10-07T02:36:23.323Z,101433.22
2022-10-07T02:39:25.265Z,101429.84
2022-10-07T02:42:33.574Z,101431.91
2022-10-07T02:45:45.970Z,101418.09
2022-10-07T02:48:56.313Z,101418.81
2022-10-07T02:52:01.815Z,101416.56
2022-10-07T02:55:08.382Z,101409.63
2022-10-07T02:58:12.883Z,101403.44
2022-10-07T03:01:20.352Z,101408.88
2022-10-07T03:04:22.810Z,101401.63
2022-10-07T03:07:26.429Z,101408.72
2022-10-07T03:10:31.590Z,101398.28
2022-10-07T03:13:35.184Z,101401.03
2022-10-07T03:16:38.793Z,101398.94
2022-10-07T03:19:41.126Z,101393.72
2022-10-07T03:22:43.637Z,101390.38
2022-10-07T03:25:48.990Z,101390.38
2022-10-07T03:28:51.217Z,101385.16
2022-10-07T03:31:55.456Z,101378.47
2022-10-07T03:34:57.783Z,101376.03
2022-10-07T03:38:00.983Z,101376.03
2022-10-07T03:41:04.482Z,101381.78
2022-10-07T03:44:06.393Z,101384.22
2022-10-07T03:47:11.472Z,101382.72
2022-10-07T03:50:14.174Z,101384.03
2022-10-07T03:53:15.934Z,101373.72
2022-10-07T03:56:17.936Z,101371.66
2022-10-07T03:59:19.517Z,101374.28
2022-10-07T04:02:24.328Z,101379.13
2022-10-07T04:05:26.181Z,101379.84
2022-10-07T04:08:29.129Z,101376.44
2022-10-07T04:11:31.527Z,101362.66
2022-10-07T04:14:33.775Z,101363.44
2022-10-07T04:17:36.945Z,101360.84
2022-10-07T04:20:38.852Z,101361.03
2022-10-07T04:23:42.444Z,101364.38
2022-10-07T04:26:44.335Z,101353.13
2022-10-07T04:29:46.017Z,101357.75
2022-10-07T04:32:50.515Z,101353.28
2022-10-07T04:35:54.897Z,101353.66
2022-10-07T04:38:58.173Z,101338.88
2022-10-07T04:42:05.118Z,101337.63
2022-10-07T04:45:08.821Z,101334.28
2022-10-07T04:48:13.304Z,101329.06
2022-10-07T04:51:16.108Z,101337.50
2022-10-07T04:54:21.501Z,101334.34
2022-10-07T04:57:27.382Z,101332.81
2022-10-07T05:00:29.500Z,101326.06
2022-10-07T05:03:36.420Z,101328.75
2022-10-07T05:06:38.021Z,101325.75
2022-10-07T05:09:39.774Z,101320.66
2022-10-07T05:12:42.566Z,101325.97
2022-10-07T05:15:48.941Z,101324.66
2022-10-07T05:18:52.198Z,101318.69
2022-10-07T05:21:53.981Z,101321.88
2022-10-07T05:24:55.790Z,101319.78
2022-10-07T05:27:57.712Z,101318.13
2022-10-07T05:31:05.556Z,101317.41
2022-10-07T05:34:09.075Z,101313.09
2022-10-07T05:37:11.904Z,101313.13
2022-10-07T05:40:13.887Z,101307.47
2022-10-07T05:43:16.147Z,101319.44
2022-10-07T05:46:23.552Z,101311.81
2022-10-07T05:49:31.645Z,101305.25
2022-10-07T05:52:35.577Z,101300.41
2022-10-07T05:55:40.234Z,101290.13
2022-10-07T05:58:42.333Z,101290.88
2022-10-07T06:01:44.955Z,101300.03
2022-10-07T06:04:53.864Z,101289.94
2022-10-07T06:07:56.030Z,101297.06
2022-10-07T06:11:20.503Z,101297.22
2022-10-07T06:14:23.259Z,101287.53
2022-10-07T06:17:24.963Z,101284.50
2022-10-07T06:20:31.377Z,101283.97
2022-10-07T06:23:34.694Z,101288.06
2022-10-07T06:26:36.398Z,101285.06
2022-10-07T06:29:38.239Z,101288.06
2022-10-07T06:32:40.066Z,101294.03
2022-10-07T06:35:43.759Z,101290.66
2022-10-07T06:38:48.180Z,101291.38
2022-10-07T06:41:54.444Z,101294.00
2022-10-07T06:45:25.268Z,101292.13
2022-10-07T06:48:29.463Z,101308.63
2022-10-07T06:51:32.528Z,101305.06
2022-10-07T06:54:34.595Z,101298.13
2022-10-07T06:57:51.652Z,101306.75
2022-10-07T07:00:56.224Z,101305.44
2022-10-07T07:03:58.143Z,101300.34
2022-10-07T07:07:02.153Z,101295.88
2022-10-07T07:10:04.757Z,101315.84
2022-10-07T07:13:08.944Z,101312.09
2022-10-07T07:16:11.013Z,101317.88
2022-10-07T07:19:13.845Z,101306.50
2022-10-07T07:22:18.197Z,101300.69
2022-10-07T07:25:20.726Z,101295.66
2022-10-07T07:28:22.672Z,101295.06
2022-10-07T07:31:25.477Z,101295.91
2022-10-07T07:34:27.976Z,101300.69
2022-10-07T07:37:31.987Z,101303.88
2022-10-07T07:40:36.487Z,101304.78
2022-10-07T07:43:38.393Z,101299.28
2022-10-07T07:46:43.150Z,101302.50
2022-10-07T07:49:45.934Z,101292.78
2022-10-07T07:52:57.356Z,101286.97
2022-10-07T07:55:59.856Z,101296.31
2022-10-07T07:59:03.931Z,101295.94
2022-10-07T08:02:07.753Z,101297.53
2022-10-07T08:05:11.764Z,101300.28
2022-10-07T08:08:14.828Z,101287.75
2022-10-07T08:11:19.253Z,101286.88
2022-10-07T08:14:23.390Z,101281.41
2022-10-07T08:17:27.098Z,101292.44
2022-10-07T08:20:29.001Z,101281.09
2022-10-07T08:23:33.988Z,101284.19
2022-10-07T08:26:37.966Z,101284.13
2022-10-07T08:29:42.259Z,101265.94
2022-10-07T08:32:46.179Z,101265.13
2022-10-07T08:35:49.554Z,101269.19
2022-10-07T08:38:53.101Z,101268.38
2022-10-07T08:42:02.451Z,101263.03
2022-10-07T08:45:08.539Z,101257.06
2022-10-07T08:48:17.503Z,101261.38
2022-10-07T08:51:23.230Z,101255.94
2022-10-07T08:54:30.671Z,101258.28
2022-10-07T08:57:46.524Z,101248.09
2022-10-07T09:00:55.612Z,101253.94
2022-10-07T09:04:10.321Z,101250.41
2022-10-07T09:07:15.994Z,101247.50
2022-10-07T09:10:28.854Z,101243.63
2022-10-07T09:13:35.678Z,101236.84
2022-10-07T09:16:47.509Z,101232.00
2022-10-07T09:19:52.773Z,101228.50
2022-10-07T09:22:57.555Z,101222.13
2022-10-07T09:26:01.738Z,101233.50
2022-10-07T09:29:03.524Z,101218.09
2022-10-07T09:32:05.205Z,101222.53
2022-10-07T09:35:11.802Z,101218.41
2022-10-07T09:38:13.788Z,101214.31
2022-10-07T09:41:21.242Z,101207.13
2022-10-07T09:44:26.425Z,101206.59
2022-10-07T09:47:31.856Z,101201.03
2022-10-07T09:50:41.142Z,101195.66
2022-10-07T09:53:57.550Z,101190.97
2022-10-07T09:57:03.441Z,101190.03
2022-10-07T10:00:22.992Z,101184.28
2022-10-07T10:03:29.586Z,101187.69
2022-10-07T10:06:31.822Z,101185.94
2022-10-07T10:09:35.055Z,101186.94
2022-10-07T10:12:46.360Z,101179.34
2022-10-07T10:15:48.321Z,101172.03
2022-10-07T10:18:55.320Z,101170.34
2022-10-07T10:21:59.174Z,101169.59
2022-10-07T10:25:19.779Z,101166.34
2022-10-07T10:28:38.458Z,101167.00
2022-10-07T10:32:06.147Z,101168.13
2022-10-07T10:35:14.712Z,101154.03
2022-10-07T10:38:28.673Z,101152.31
2022-10-07T10:41:39.946Z,101148.28
2022-10-07T10:45:03.537Z,101141.94
2022-10-07T10:48:25.700Z,101141.69
2022-10-07T10:51:43.987Z,101124.72
2022-10-07T10:55:00.192Z,101129.44
2022-10-07T10:58:15.394Z,101120.78
2022-10-07T11:01:29.350Z,101114.66
2022-10-07T11:04:43.850Z,101109.28
2022-10-07T11:07:51.025Z,101109.44
2022-10-07T11:10:56.140Z,101108.00
2022-10-07T11:14:02.016Z,101103.53
2022-10-07T11:17:07.461Z,101086.66
2022-10-07T11:20:18.064Z,101087.72
2022-10-07T11:23:23.305Z,101089.31
2022-10-07T11:26:32.342Z,101073.06
2022-10-07T11:29:40.640Z,101071.47
2022-10-07T11:32:49.281Z,101068.28
2022-10-07T11:35:57.373Z,101071.34
2022-10-07T11:38:58.997Z,101066.00
2022-10-07T11:42:07.792Z,101053.00
2022-10-07T11:45:13.190Z,101052.50
2022-10-07T11:48:21.135Z,101042.22
2022-10-07T11:51:27.443Z,101046.94
2022-10-07T11:54:38.117Z,101040.00
2022-10-07T11:57:43.700Z,101021.44
2022-10-07T12:00:45.396Z,101018.28
2022-10-07T12:03:48.660Z,101015.63
2022-10-07T12:07:28.380Z,101010.66
2022-10-07T12:10:31.464Z,101014.94
2022-10-07T12:13:38.630Z,101008.34
2022-10-07T12:16:42.873Z,100989.53
2022-10-07T12:19:45.872Z,100984.38
2022-10-07T12:23:28.180Z,100982.53
2022-10-07T12:26:47.365Z,100983.22
2022-10-07T12:29:58.325Z,100973.75
2022-10-07T12:33:00.868Z,100964.22
2022-10-07T12:36:31.287Z,100965.06
2022-10-07T12:39:37.057Z,100961.09
2022-10-07T12:42:47.540Z,100943.47
2022-10-07T12:45:50.242Z,100931.06
2022-10-07T12:48:58.621Z,100926.13
2022-10-07T12:52:05.334Z,100927.72
2022-10-07T12:55:10.911Z,100914.41
2022-10-07T12:58:49.758Z,100918.63
2022-10-07T13:02:17.355Z,100906.69
2022-10-07T13:05:48.910Z,100907.16
2022-10-07T13:09:38.343Z,100899.97
2022-10-07T13:12:47.723Z,100900.09
2022-10-07T13:15:55.749Z,100895.69
2022-10-07T13:19:04.409Z,100890.13
2022-10-07T13:22:12.215Z,100886.56
2022-10-07T13:25:17.248Z,100890.69
2022-10-07T13:28:23.557Z,100884.66
2022-10-07T13:31:27.704Z,100885.94
2022-10-07T13:34:29.631Z,100874.88
2022-10-07T13:37:34.492Z,100867.28
2022-10-07T13:40:36.236Z,100867.19
2022-10-07T13:43:39.502Z,100853.44
2022-10-07T13:46:52.903Z,100852.63
2022-10-07T13:49:54.940Z,100846.06
2022-10-07T13:52:57.392Z,100842.19
2022-10-07T13:56:22.030Z,100844.75
2022-10-07T13:59:25.529Z,100833.59
2022-10-07T14:02:27.803Z,100825.03
2022-10-07T14:05:31.522Z,100816.75
2022-10-07T14:08:33.961Z,100814.59
2022-10-07T14:11:36.019Z,100798.69
2022-10-07T14:14:41.260Z,100800.31
2022-10-07T14:17:47.236Z,100804.28
2022-10-07T14:20:51.911Z,100794.09
2022-10-07T14:23:53.688Z,100784.28
2022-10-07T14:26:55.662Z,100780.53
2022-10-07T14:29:58.853Z,100780.59
2022-10-07T14:33:25.340Z,100767.78
2022-10-07T14:36:29.891Z,100771.75
2022-10-07T14:39:34.512Z,100761.66
2022-10-07T14:42:38.497Z,100752.63
2022-10-07T14:45:42.051Z,100746.69
2022-10-07T14:48:44.277Z,100749.16
2022-10-07T14:51:46.294Z,100747.31
2022-10-07T14:54:48.814Z,100746.44
2022-10-07T14:57:50.558Z,100733.53
2022-10-07T15:00:53.682Z,100727.22
2022-10-07T15:03:55.490Z,100727.03
2022-10-07T15:06:58.021Z,100725.06
2022-10-07T15:09:59.690Z,100713.56
2022-10-07T15:13:01.794Z,100716.13
2022-10-07T15:16:05.537Z,100721.84
2022-10-07T15:19:07.454Z,100715.22
2022-10-07T15:22:09.184Z,100711.00
2022-10-07T15:25:12.566Z,100702.69
2022-10-07T15:28:15.411Z,100708.56
2022-10-07T15:31:18.815Z,100705.50
2022-10-07T15:34:20.797Z,100712.47
2022-10-07T15:37:23.862Z,100715.63
2022-10-07T15:40:25.827Z,100717.69
2022-10-07T15:43:28.453Z,100703.13
2022-10-07T15:46:32.076Z,100701.81
2022-10-07T15:49:34.191Z,100703.66
2022-10-07T15:52:36.089Z,100705.91
2022-10-07T15:55:37.765Z,100697.50
2022-10-07T15:58:41.033Z,100691.97
2022-10-07T16:01:44.324Z,100688.06
2022-10-07T16:04:47.383Z,100691.31
2022-10-07T16:07:49.153Z,100690.78
2022-10-07T16:10:50.902Z,100681.47
2022-10-07T16:13:52.933Z,100687.13
2022-10-07T16:16:58.386Z,100684.69
2022-10-07T16:20:00.199Z,100686.59
2022-10-07T16:23:01.901Z,100690.44
2022-10-07T16:26:04.949Z,100694.53
2022-10-07T16:29:30.396Z,100701.47
2022-10-07T16:32:33.479Z,100693.09
2022-10-07T16:35:35.183Z,100688.34
2022-10-07T16:38:37.063Z,100688.72
2022-10-07T16:41:42.034Z,100689.41
2022-10-07T16:44:47.252Z,100690.09
2022-10-07T16:47:54.969Z,100696.97
2022-10-07T16:50:57.336Z,100701.97
2022-10-07T16:54:05.803Z,100703.47
2022-10-07T16:57:07.467Z,100699.31
2022-10-07T17:00:10.635Z,100686.94
2022-10-07T17:03:13.926Z,100686.06
2022-10-07T17:06:17.949Z,100678.56
2022-10-07T17:09:19.994Z,100677.97
2022-10-07T17:12:24.315Z,100692.78
2022-10-07T17:15:26.101Z,100686.88
2022-10-07T17:18:29.290Z,100695.69
2022-10-07T17:21:30.954Z,100695.38
2022-10-07T17:24:32.619Z,100694.25
2022-10-07T17:27:34.285Z,100697.97
2022-10-07T17:30:36.029Z,100696.47
2022-10-07T17:33:40.591Z,100693.47
2022-10-07T17:36:43.842Z,100692.06
2022-10-07T17:39:45.679Z,100689.75
2022-10-07T17:42:47.349Z,100695.97
2022-10-07T17:45:49.228Z,100693.84
2022-10-07T17:48:54.579Z,100680.84
2022-10-07T17:51:57.263Z,100690.75
2022-10-07T17:54:58.964Z,100682.06
2022-10-07T17:58:00.788Z,100684.25
2022-10-07T18:01:05.980Z,100695.34
2022-10-07T18:04:11.299Z,100682.91
2022-10-07T18:07:13.101Z,100685.78
2022-10-07T18:10:14.830Z,100679.44
2022-10-07T18:13:35.048Z,100673.13
2022-10-07T18:16:36.777Z,100675.41
2022-10-07T18:19:41.131Z,100675.00
2022-10-07T18:22:44.119Z,100671.84
2022-10-07T18:25:46.465Z,100665.78
2022-10-07T18:28:48.203Z,100657.97
2022-10-07T18:31:50.009Z,100661.13
2022-10-07T18:34:53.159Z,100662.06
2022-10-07T18:37:54.763Z,100657.19
2022-10-07T18:40:59.822Z,100652.84
2022-10-07T18:44:01.522Z,100663.94
2022-10-07T18:47:03.410Z,100661.69
2022-10-07T18:50:07.360Z,100656.66
2022-10-07T18:53:09.022Z,100658.66
2022-10-07T18:56:12.395Z,100645.47
2022-10-07T18:59:14.328Z,100652.44
2022-10-07T19:02:16.278Z,100663.56
2022-10-07T19:05:19.445Z,100666.47
2022-10-07T19:08:21.942Z,100666.59
2022-10-07T19:11:24.131Z,100659.44
2022-10-07T19:14:26.138Z,100665.25
2022-10-07T19:17:28.134Z,100666.28
2022-10-07T19:20:31.203Z,100662.91
2022-10-07T19:23:32.877Z,100654.94
2022-10-07T19:26:36.559Z,100652.06
2022-10-07T19:29:38.314Z,100660.72
2022-10-07T19:32:40.178Z,100658.50
2022-10-07T19:35:43.516Z,100660.88
2022-10-07T19:38:46.791Z,100665.09
2022-10-07T19:41:48.747Z,100649.66
2022-10-07T19:44:50.537Z,100654.91
2022-10-07T19:47:53.762Z,100651.50
2022-10-07T19:51:00.481Z,100649.59
2022-10-07T19:54:03.845Z,100637.81
2022-10-07T19:57:05.537Z,100638.19
2022-10-07T20:00:08.832Z,100646.31
2022-10-07T20:03:13.933Z,100644.19
2022-10-07T20:06:17.438Z,100636.53
2022-10-07T20:09:19.409Z,100630.25
2022-10-07T20:12:21.159Z,100623.75
2022-10-07T20:15:23.188Z,100620.34
2022-10-07T20:18:25.233Z,100623.53
2022-10-07T20:21:28.794Z,100624.97
2022-10-07T20:24:30.551Z,100628.53
2022-10-07T20:27:32.798Z,100629.81
2022-10-07T20:30:34.805Z,100638.13
2022-10-07T20:33:38.886Z,100632.06
2022-10-07T20:36:42.806Z,100644.06
2022-10-07T20:40:03.561Z,100643.28
2022-10-07T20:43:05.566Z,100638.00
2022-10-07T20:46:07.763Z,100639.09
2022-10-07T20:49:23.991Z,100639.69
2022-10-07T20:52:29.397Z,100643.03
2022-10-07T20:55:36.104Z,100640.13
2022-10-07T20:58:37.934Z,100638.63
2022-10-07T21:01:42.924Z,100630.16
2022-10-07T21:04:46.858Z,100631.94
2022-10-07T21:07:54.402Z,100638.25
2022-10-07T21:11:00.248Z,100640.50
2022-10-07T21:14:02.075Z,100629.75
2022-10-07T21:17:05.036Z,100640.81
2022-10-07T21:20:07.297Z,100633.22
2022-10-07T21:23:10.300Z,100628.84
2022-10-07T21:26:12.324Z,100624.88
2022-10-07T21:29:14.477Z,100620.09
2022-10-07T21:32:16.146Z,100613.09
2022-10-07T21:35:17.864Z,100606.63
2022-10-07T21:38:21.030Z,100609.66
2022-10-07T21:41:25.352Z,100609.38
2022-10-07T21:44:27.994Z,100602.75
2022-10-07T21:47:29.705Z,100599.75
2022-10-07T21:50:31.396Z,100600.63
2022-10-07T21:53:34.338Z,100602.22
2022-10-07T21:56:36.665Z,100614.34
2022-10-07T21:59:38.918Z,100602.63
2022-10-07T22:02:40.669Z,100607.56
2022-10-07T22:05:42.299Z,100609.56
2022-10-07T22:08:46.395Z,100605.84
2022-10-07T22:11:48.730Z,100599.66
2022-10-07T22:14:50.398Z,100602.75
2022-10-07T22:17:52.143Z,100602.34
2022-10-07T22:20:53.831Z,100601.69
2022-10-07T22:23:58.587Z,100596.81
2022-10-07T22:27:01.145Z,100593.53
2022-10-07T22:30:03.291Z,100588.00
2022-10-07T22:33:04.940Z,100585.09
2022-10-07T22:36:08.154Z,100594.09
2022-10-07T22:39:12.010Z,100586.03
2022-10-07T22:42:13.681Z,100588.94
2022-10-07T22:45:15.853Z,100592.78
2022-10-07T22:48:17.541Z,100587.09
2022-10-07T22:51:20.077Z,100588.41
2022-10-07T22:54:23.132Z,100593.16
2022-10-07T22:57:24.922Z,100585.75
2022-10-07T23:00:26.682Z,100586.97
2022-10-07T23:03:28.605Z,100584.19
2022-10-07T23:06:32.437Z,100582.75
2022-10-07T23:09:35.420Z,100580.22
2022-10-07T23:12:37.128Z,100582.72
2022-10-07T23:15:38.856Z,100577.19
2022-10-07T23:18:44.637Z,100577.97
2022-10-07T23:21:46.970Z,100576.28
2022-10-07T23:24:50.057Z,100571.25
2022-10-07T23:27:51.693Z,100555.00
2022-10-07T23:30:53.451Z,100556.44
2022-10-07T23:33:56.686Z,100552.91
2022-10-07T23:36:58.282Z,100555.16
2022-10-07T23:40:01.286Z,100547.19
2022-10-07T23:43:03.083Z,100550.63
2022-10-07T23:46:06.862Z,100549.06
2022-10-07T23:49:08.618Z,100550.09
2022-10-07T23:52:10.372Z,100548.53
2022-10-07T23:55:13.388Z,100553.81
2022-10-07T23:58:15.981Z,100544.94
